createdAt,value
2018-07-04T00:01:12.002Z,98816.98
2018-07-04T00:03:52.447Z,98818.20
2018-07-04T00:06:32.602Z,98825.47
2018-07-04T00:09:12.993Z,98820.54
2018-07-04T00:11:53.607Z,98826.60
2018-07-04T00:14:34.087Z,98821.23
2018-07-04T00:17:14.411Z,98829.49
2018-07-04T00:19:54.942Z,98825.49
2018-07-04T00:22:35.176Z,98825.39
2018-07-04T00:25:15.713Z,98822.30
2018-07-04T00:27:56.045Z,98825.63
2018-07-04T00:30:36.333Z,98827.45
2018-07-04T00:33:16.612Z,98824.05
2018-07-04T00:35:57.080Z,98799.34
2018-07-04T00:38:37.310Z,98826.67
2018-07-04T00:41:17.850Z,98826.48
2018-07-04T00:43:58.049Z,98817.53
2018-07-04T00:46:38.348Z,98820.66
2018-07-04T00:49:18.721Z,98821.45
2018-07-04T00:51:59.086Z,98826.62
2018-07-04T00:54:39.646Z,98830.94
2018-07-04T00:57:19.961Z,98828.46
2018-07-04T01:00:00.334Z,98827.70
2018-07-04T01:02:40.779Z,98828.95
2018-07-04T01:05:20.990Z,98832.86
2018-07-04T01:08:01.339Z,98829.24
2018-07-04T01:10:41.710Z,98838.90
2018-07-04T01:13:22.225Z,98832.19
2018-07-04T01:16:02.581Z,98821.53
2018-07-04T01:18:42.918Z,98827.23
2018-07-04T01:21:23.606Z,98821.20
2018-07-04T01:24:03.894Z,98822.09
2018-07-04T01:26:44.117Z,98818.77
2018-07-04T01:29:25.437Z,98820.80
2018-07-04T01:32:06.119Z,98821.03
2018-07-04T01:34:46.706Z,98823.03
2018-07-04T01:37:27.168Z,98818.45
2018-07-04T01:40:07.696Z,98819.01
2018-07-04T01:42:47.816Z,98819.55
2018-07-04T01:45:28.233Z,98825.47
2018-07-04T01:48:08.426Z,98823.36
2018-07-04T01:50:48.906Z,98826.23
2018-07-04T01:53:29.238Z,98823.03
2018-07-04T01:56:09.602Z,98817.75
2018-07-04T01:58:50.106Z,98816.32
2018-07-04T02:01:30.997Z,98819.89
2018-07-04T02:04:11.369Z,98816.66
2018-07-04T02:06:51.637Z,98821.75
2018-07-04T02:09:32.098Z,98815.19
2018-07-04T02:12:12.483Z,98815.75
2018-07-04T02:14:52.851Z,98820.14
2018-07-04T02:17:33.222Z,98814.23
2018-07-04T02:20:13.563Z,98811.30
2018-07-04T02:22:53.952Z,98806.19
2018-07-04T02:25:34.249Z,98806.78
2018-07-04T02:28:14.506Z,98801.47
2018-07-04T02:30:54.782Z,98805.03
2018-07-04T02:33:35.288Z,98797.03
2018-07-04T02:36:15.722Z,98790.28
2018-07-04T02:38:55.928Z,98795.19
2018-07-04T02:41:36.306Z,98795.32
2018-07-04T02:44:16.709Z,98795.24
2018-07-04T02:46:57.054Z,98786.05
2018-07-04T02:49:37.273Z,98792.70
2018-07-04T02:52:17.511Z,98795.63
2018-07-04T02:54:57.858Z,98782.60
2018-07-04T02:57:38.257Z,98784.49
2018-07-04T03:00:18.550Z,98784.16
2018-07-04T03:02:58.970Z,98795.11
2018-07-04T03:05:39.246Z,98784.76
2018-07-04T03:08:19.610Z,98786.27
2018-07-04T03:11:00.002Z,98781.20
2018-07-04T03:13:40.214Z,98788.63
2018-07-04T03:16:20.621Z,98790.75
2018-07-04T03:19:01.032Z,98795.32
2018-07-04T03:21:41.413Z,98795.98
2018-07-04T03:24:21.710Z,98784.41
2018-07-04T03:27:02.007Z,98790.39
2018-07-04T03:29:42.334Z,98786.50
2018-07-04T03:32:22.533Z,98781.81
2018-07-04T03:35:02.911Z,98786.24
2018-07-04T03:37:43.129Z,98792.57
2018-07-04T03:40:23.578Z,98799.27
2018-07-04T03:43:03.815Z,98795.77
2018-07-04T03:45:44.162Z,98797.21
2018-07-04T03:48:24.459Z,98796.38
2018-07-04T03:51:04.726Z,98800.59
2018-07-04T03:53:45.091Z,98800.90
2018-07-04T03:56:25.465Z,98799.27
2018-07-04T03:59:05.821Z,98803.33
2018-07-04T04:01:47.205Z,98798.09
2018-07-04T04:04:27.515Z,98799.97
2018-07-04T04:07:07.833Z,98797.45
2018-07-04T04:09:48.077Z,98797.23
2018-07-04T04:12:28.404Z,98805.22
2018-07-04T04:15:08.658Z,98807.70
2018-07-04T04:17:49.057Z,98807.70
2018-07-04T04:20:29.453Z,98809.16
2018-07-04T04:23:09.910Z,98812.08
2018-07-04T04:25:50.474Z,98804.40
2018-07-04T04:28:30.933Z,98813.12
2018-07-04T04:31:11.365Z,98814.72
2018-07-04T04:33:51.631Z,98815.43
2018-07-04T04:36:31.827Z,98811.95
2018-07-04T04:39:12.274Z,98813.13
2018-07-04T04:41:52.478Z,98821.41
2018-07-04T04:44:32.885Z,98782.23
2018-07-04T04:47:13.370Z,98821.62
2018-07-04T04:49:53.630Z,98818.98
2018-07-04T04:52:33.814Z,98823.47
2018-07-04T04:55:14.246Z,98809.25
2018-07-04T04:57:54.706Z,98811.30
2018-07-04T05:00:34.955Z,98806.69
2018-07-04T05:03:15.196Z,98808.73
2018-07-04T05:05:55.468Z,98803.55
2018-07-04T05:08:35.876Z,98800.30
2018-07-04T05:11:16.233Z,98801.94
2018-07-04T05:13:56.873Z,98803.14
2018-07-04T05:16:37.245Z,98804.94
2018-07-04T05:19:17.690Z,98802.45
2018-07-04T05:21:58.167Z,98802.67
2018-07-04T05:24:38.526Z,98806.95
2018-07-04T05:27:18.909Z,98807.55
2018-07-04T05:29:59.233Z,98806.06
2018-07-04T05:32:39.743Z,98806.63
2018-07-04T05:35:19.989Z,98797.56
2018-07-04T05:38:00.398Z,98796.22
2018-07-04T05:40:40.882Z,98800.41
2018-07-04T05:43:21.346Z,98795.42
2018-07-04T05:46:01.794Z,98787.61
2018-07-04T05:48:42.186Z,98793.22
2018-07-04T05:51:22.604Z,98795.91
2018-07-04T05:54:02.970Z,98796.01
2018-07-04T05:56:43.293Z,98793.09
2018-07-04T05:59:23.611Z,98797.13
2018-07-04T06:02:03.824Z,98804.64
2018-07-04T06:04:44.283Z,98801.27
2018-07-04T06:07:24.512Z,98803.07
2018-07-04T06:10:05.130Z,98800.72
2018-07-04T06:12:45.531Z,98806.98
2018-07-04T06:15:25.967Z,98806.88
2018-07-04T06:18:06.155Z,98808.23
2018-07-04T06:20:46.512Z,98807.56
2018-07-04T06:23:27.020Z,98803.48
2018-07-04T06:26:07.611Z,98808.51
2018-07-04T06:28:47.952Z,98810.61
2018-07-04T06:31:29.564Z,98807.00
2018-07-04T06:34:10.014Z,98812.36
2018-07-04T06:36:50.355Z,98814.70
2018-07-04T06:39:18.329Z,98811.05
2018-07-04T06:41:47.229Z,98813.73
2018-07-04T06:44:15.231Z,98813.16
2018-07-04T06:46:43.236Z,98811.48
2018-07-04T06:49:12.059Z,98817.02
2018-07-04T06:51:40.031Z,98785.03
2018-07-04T06:54:08.032Z,98815.55
2018-07-04T06:56:35.974Z,98817.81
2018-07-04T06:59:04.002Z,98811.75
2018-07-04T07:01:32.030Z,98814.69
2018-07-04T07:04:12.253Z,98809.94
2018-07-04T07:06:52.497Z,98812.02
2018-07-04T07:09:32.901Z,98808.27
2018-07-04T07:12:13.376Z,98812.18
2018-07-04T07:14:53.624Z,98807.21
2018-07-04T07:17:33.958Z,98805.61
2018-07-04T07:20:14.221Z,98809.56
2018-07-04T07:22:54.991Z,98806.90
2018-07-04T07:25:35.357Z,98810.81
2018-07-04T07:28:15.701Z,98811.47
2018-07-04T07:30:56.296Z,98811.76
2018-07-04T07:33:36.541Z,98815.98
2018-07-04T07:36:16.855Z,98813.41
2018-07-04T07:38:57.141Z,98811.06
2018-07-04T07:41:37.397Z,98810.64
2018-07-04T07:44:17.703Z,98812.92
2018-07-04T07:46:58.038Z,98815.98
2018-07-04T07:49:38.476Z,98804.35
2018-07-04T07:52:19.757Z,98802.20
2018-07-04T07:55:01.059Z,98805.92
2018-07-04T07:57:41.392Z,98805.81
2018-07-04T08:00:21.674Z,98805.30
2018-07-04T08:03:02.233Z,98806.00
2018-07-04T08:05:42.685Z,98804.08
2018-07-04T08:08:23.065Z,98807.43
2018-07-04T08:11:03.328Z,98804.37
2018-07-04T08:13:43.703Z,98815.24
2018-07-04T08:16:23.917Z,98812.34
2018-07-04T08:19:04.179Z,98809.22
2018-07-04T08:21:44.677Z,98811.66
2018-07-04T08:24:25.115Z,98805.92
2018-07-04T08:27:05.468Z,98819.00
2018-07-04T08:29:45.786Z,98821.40
2018-07-04T08:32:26.189Z,98832.28
2018-07-04T08:35:06.637Z,98825.67
2018-07-04T08:37:46.904Z,98821.88
2018-07-04T08:40:27.333Z,98825.47
2018-07-04T08:43:07.685Z,98827.67
2018-07-04T08:45:48.045Z,98829.44
2018-07-04T08:48:28.171Z,98830.88
2018-07-04T08:51:08.354Z,98828.96
2018-07-04T08:53:48.950Z,98830.03
2018-07-04T08:56:29.373Z,98828.89
2018-07-04T08:59:09.698Z,98827.73
2018-07-04T09:01:50.035Z,98828.36
2018-07-04T09:04:30.328Z,98828.45
2018-07-04T09:07:10.659Z,98823.45
2018-07-04T09:09:50.805Z,98829.06
2018-07-04T09:12:31.253Z,98824.77
2018-07-04T09:15:11.565Z,98824.11
2018-07-04T09:17:51.953Z,98823.08
2018-07-04T09:20:32.254Z,98827.37
2018-07-04T09:23:13.661Z,98828.67
2018-07-04T09:25:54.045Z,98825.69
2018-07-04T09:28:34.626Z,98826.55
2018-07-04T09:31:15.806Z,98821.02
2018-07-04T09:33:56.204Z,98829.86
2018-07-04T09:36:36.612Z,98823.96
2018-07-04T09:39:16.870Z,98826.49
2018-07-04T09:41:57.320Z,98821.28
2018-07-04T09:44:37.891Z,98825.66
2018-07-04T09:47:18.311Z,98814.95
2018-07-04T09:49:58.560Z,98816.45
2018-07-04T09:52:39.065Z,98814.81
2018-07-04T09:55:19.280Z,98811.30
2018-07-04T09:57:59.657Z,98821.23
2018-07-04T10:00:45.253Z,98820.55
2018-07-04T10:03:25.592Z,98819.57
2018-07-04T10:06:05.797Z,98813.52
2018-07-04T10:08:46.187Z,98815.33
2018-07-04T10:11:26.896Z,98803.84
2018-07-04T10:14:07.165Z,98799.92
2018-07-04T10:16:47.567Z,98801.31
2018-07-04T10:19:27.966Z,98798.02
2018-07-04T10:22:08.176Z,98791.11
2018-07-04T10:24:48.536Z,98784.67
2018-07-04T10:27:28.736Z,98779.42
2018-07-04T10:30:09.037Z,98772.23
2018-07-04T10:32:49.416Z,98780.19
2018-07-04T10:35:29.674Z,98770.46
2018-07-04T10:38:09.863Z,98767.95
2018-07-04T10:40:50.275Z,98766.40
2018-07-04T10:43:30.577Z,98756.66
2018-07-04T10:46:11.037Z,98754.63
2018-07-04T10:48:51.288Z,98749.17
2018-07-04T10:51:31.620Z,98742.35
2018-07-04T10:54:11.923Z,98741.58
2018-07-04T10:56:52.310Z,98745.09
2018-07-04T10:59:32.622Z,98743.79
2018-07-04T11:02:12.779Z,98742.24
2018-07-04T11:04:53.053Z,98735.80
2018-07-04T11:07:33.287Z,98729.91
2018-07-04T11:10:13.450Z,98722.84
2018-07-04T11:12:53.714Z,98719.74
2018-07-04T11:15:34.863Z,98721.73
2018-07-04T11:18:15.128Z,98715.77
2018-07-04T11:20:55.580Z,98716.20
2018-07-04T11:23:35.956Z,98712.34
2018-07-04T11:26:16.549Z,98726.54
2018-07-04T11:28:56.841Z,98744.77
2018-07-04T11:31:37.349Z,98756.38
2018-07-04T11:34:17.665Z,98785.20
2018-07-04T11:36:57.892Z,98770.54
2018-07-04T11:39:38.221Z,98788.39
2018-07-04T11:42:18.870Z,98805.84
2018-07-04T11:44:59.230Z,98825.39
2018-07-04T11:47:27.918Z,98824.21
2018-07-04T11:49:55.893Z,98833.23
2018-07-04T11:52:23.881Z,98826.36
2018-07-04T11:54:51.910Z,98822.69
2018-07-04T11:57:19.999Z,98810.73
2018-07-04T11:59:47.991Z,98797.19
2018-07-04T12:02:16.006Z,98787.38
2018-07-04T12:04:56.392Z,98779.45
2018-07-04T12:07:24.421Z,98777.08
2018-07-04T12:09:52.502Z,98780.98
2018-07-04T12:12:20.538Z,98777.56
2018-07-04T12:14:49.357Z,98777.91
2018-07-04T12:17:17.322Z,98773.02
2018-07-04T12:19:45.314Z,98762.88
2018-07-04T12:22:13.294Z,98762.20
2018-07-04T12:24:41.433Z,98770.83
2018-07-04T12:27:09.452Z,98774.37
2018-07-04T12:29:37.429Z,98773.92
2018-07-04T12:32:05.661Z,98775.42
2018-07-04T12:34:33.555Z,98779.38
2018-07-04T12:37:02.224Z,98779.23
2018-07-04T12:39:30.246Z,98775.88
2018-07-04T12:41:58.320Z,98769.84
2018-07-04T12:44:26.320Z,98773.39
2018-07-04T12:46:54.377Z,98768.14
2018-07-04T12:49:25.306Z,98774.11
2018-07-04T12:51:54.417Z,98775.45
2018-07-04T12:54:27.851Z,98782.03
2018-07-04T12:57:08.059Z,98777.13
2018-07-04T12:59:48.517Z,98786.83
2018-07-04T13:02:29.024Z,98793.53
2018-07-04T13:05:09.937Z,98784.81
2018-07-04T13:07:50.383Z,98789.85
2018-07-04T13:10:30.872Z,98780.77
2018-07-04T13:13:11.173Z,98789.23
2018-07-04T13:15:51.467Z,98796.07
2018-07-04T13:18:31.972Z,98798.03
2018-07-04T13:21:12.113Z,98796.66
2018-07-04T13:23:52.394Z,98792.70
2018-07-04T13:26:32.683Z,98785.59
2018-07-04T13:29:13.311Z,98782.62
2018-07-04T13:31:53.781Z,98782.58
2018-07-04T13:34:34.729Z,98784.27
2018-07-04T13:37:14.978Z,98792.36
2018-07-04T13:39:55.752Z,98785.47
2018-07-04T13:42:36.178Z,98787.94
2018-07-04T13:45:16.442Z,98789.11
2018-07-04T13:47:56.872Z,98788.92
2018-07-04T13:50:37.261Z,98779.73
2018-07-04T13:53:17.674Z,98761.34
2018-07-04T13:55:58.137Z,98757.04
2018-07-04T13:58:38.999Z,98752.05
2018-07-04T14:01:19.486Z,98749.73
2018-07-04T14:03:59.807Z,98737.59
2018-07-04T14:06:40.134Z,98729.45
2018-07-04T14:09:20.474Z,98719.94
2018-07-04T14:12:01.186Z,98707.41
2018-07-04T14:14:41.474Z,98703.70
2018-07-04T14:17:21.911Z,98703.28
2018-07-04T14:20:02.297Z,98690.45
2018-07-04T14:22:42.659Z,98686.75
2018-07-04T14:25:22.861Z,98688.70
2018-07-04T14:28:03.065Z,98679.38
2018-07-04T14:30:43.528Z,98690.03
2018-07-04T14:33:23.865Z,98689.70
2018-07-04T14:36:04.379Z,98695.23
2018-07-04T14:38:45.400Z,98687.21
2018-07-04T14:41:25.759Z,98682.67
2018-07-04T14:44:06.205Z,98687.69
2018-07-04T14:46:47.016Z,98695.41
2018-07-04T14:49:27.174Z,98711.30
2018-07-04T14:52:08.770Z,98716.59
2018-07-04T14:54:49.138Z,98728.05
2018-07-04T14:57:29.383Z,98737.11
2018-07-04T15:00:09.782Z,98750.30
2018-07-04T15:02:50.287Z,98759.66
2018-07-04T15:05:30.642Z,98763.98
2018-07-04T15:08:10.968Z,98782.34
2018-07-04T15:10:51.293Z,98797.31
2018-07-04T15:13:31.791Z,98823.39
2018-07-04T15:16:12.628Z,98831.97
2018-07-04T15:18:54.447Z,98834.00
2018-07-04T15:21:34.850Z,98854.88
2018-07-04T15:24:15.154Z,98844.17
2018-07-04T15:26:55.414Z,98846.42
2018-07-04T15:29:35.762Z,98843.20
2018-07-04T15:32:16.270Z,98834.70
2018-07-04T15:34:56.472Z,98822.53
2018-07-04T15:37:37.887Z,98832.89
2018-07-04T15:40:18.283Z,98833.52
2018-07-04T15:42:58.709Z,98848.31
2018-07-04T15:45:38.967Z,98850.78
2018-07-04T15:48:19.422Z,98840.38
2018-07-04T15:50:59.744Z,98822.84
2018-07-04T15:53:40.109Z,98808.98
2018-07-04T15:56:20.566Z,98816.96
2018-07-04T15:59:00.849Z,98814.84
2018-07-04T16:01:42.062Z,98799.99
2018-07-04T16:04:22.429Z,98808.58
2018-07-04T16:07:03.872Z,98802.05
2018-07-04T16:09:44.096Z,98800.02
2018-07-04T16:12:24.448Z,98789.48
2018-07-04T16:15:04.849Z,98790.03
2018-07-04T16:17:45.989Z,98794.13
2018-07-04T16:20:26.956Z,98796.04
2018-07-04T16:23:07.280Z,98797.50
2018-07-04T16:25:47.477Z,98781.48
2018-07-04T16:28:27.845Z,98778.56
2018-07-04T16:31:08.298Z,98769.83
2018-07-04T16:33:48.538Z,98765.77
2018-07-04T16:36:28.826Z,98760.63
2018-07-04T16:39:09.183Z,98751.87
2018-07-04T16:41:49.594Z,98741.76
2018-07-04T16:44:29.950Z,98734.48
2018-07-04T16:47:10.337Z,98736.06
2018-07-04T16:49:50.781Z,98729.80
2018-07-04T16:52:31.009Z,98734.58
2018-07-04T16:55:11.445Z,98727.03
2018-07-04T16:57:51.698Z,98716.98
2018-07-04T17:00:32.063Z,98705.08
2018-07-04T17:03:12.408Z,98695.97
2018-07-04T17:05:52.721Z,98681.59
2018-07-04T17:08:33.103Z,98682.39
2018-07-04T17:11:13.360Z,98689.10
2018-07-04T17:13:53.804Z,98692.17
2018-07-04T17:16:33.990Z,98672.34
2018-07-04T17:19:14.211Z,98663.77
2018-07-04T17:21:54.522Z,98672.86
2018-07-04T17:24:34.886Z,98671.35
2018-07-04T17:27:15.397Z,98673.95
2018-07-04T17:29:55.725Z,98701.26
2018-07-04T17:32:35.981Z,98718.07
2018-07-04T17:35:16.375Z,98722.77
2018-07-04T17:37:56.771Z,98720.81
2018-07-04T17:40:37.205Z,98720.69
2018-07-04T17:43:17.498Z,98736.03
2018-07-04T17:45:57.658Z,98738.28
2018-07-04T17:48:38.062Z,98744.83
2018-07-04T17:51:18.424Z,98742.80
2018-07-04T17:53:58.624Z,98741.52
2018-07-04T17:56:39.103Z,98743.54
2018-07-04T17:59:19.338Z,98737.48
2018-07-04T18:01:59.686Z,98739.02
2018-07-04T18:04:40.070Z,98745.97
2018-07-04T18:07:20.259Z,98763.07
2018-07-04T18:10:00.567Z,98787.89
2018-07-04T18:12:40.875Z,98749.50
2018-07-04T18:15:21.224Z,98768.27
2018-07-04T18:18:01.611Z,98757.14
2018-07-04T18:20:41.875Z,98772.46
2018-07-04T18:23:22.392Z,98753.61
2018-07-04T18:26:02.593Z,98744.20
2018-07-04T18:28:43.188Z,98730.57
2018-07-04T18:31:23.654Z,98721.02
2018-07-04T18:34:03.945Z,98727.89
2018-07-04T18:36:44.387Z,98727.87
2018-07-04T18:39:24.733Z,98719.38
2018-07-04T18:42:05.034Z,98712.78
2018-07-04T18:44:45.448Z,98712.00
2018-07-04T18:47:25.882Z,98708.85
2018-07-04T18:50:06.208Z,98712.36
2018-07-04T18:52:46.372Z,98714.77
2018-07-04T18:55:26.569Z,98712.63
2018-07-04T18:58:06.887Z,98717.33
2018-07-04T19:00:47.351Z,98700.55
2018-07-04T19:03:27.582Z,98697.75
2018-07-04T19:06:07.938Z,98689.63
2018-07-04T19:08:48.255Z,98701.08
2018-07-04T19:11:28.673Z,98702.56
2018-07-04T19:14:08.967Z,98683.27
2018-07-04T19:16:49.235Z,98667.13
2018-07-04T19:19:29.699Z,98659.47
2018-07-04T19:22:10.127Z,98648.05
2018-07-04T19:24:50.511Z,98643.39
2018-07-04T19:27:30.878Z,98633.61
2018-07-04T19:30:11.413Z,98619.41
2018-07-04T19:32:51.887Z,98614.96
2018-07-04T19:35:32.117Z,98606.13
2018-07-04T19:38:12.469Z,98597.76
2018-07-04T19:40:52.888Z,98600.92
2018-07-04T19:43:33.434Z,98593.85
2018-07-04T19:46:13.933Z,98600.13
2018-07-04T19:48:55.137Z,98577.80
2018-07-04T19:51:35.698Z,98610.01
2018-07-04T19:54:16.570Z,98607.70
2018-07-04T19:56:56.950Z,98619.20
2018-07-04T19:59:37.449Z,98628.03
2018-07-04T20:02:17.840Z,98636.89
2018-07-04T20:04:58.283Z,98644.81
2018-07-04T20:07:38.563Z,98639.91
2018-07-04T20:10:18.932Z,98641.36
2018-07-04T20:12:59.290Z,98645.42
2018-07-04T20:15:39.871Z,98653.66
2018-07-04T20:18:20.130Z,98661.24
2018-07-04T20:21:00.406Z,98664.63
2018-07-04T20:23:40.682Z,98668.16
2018-07-04T20:26:20.875Z,98667.64
2018-07-04T20:29:01.234Z,98686.06
2018-07-04T20:31:41.621Z,98698.27
2018-07-04T20:34:21.793Z,98691.31
2018-07-04T20:37:01.929Z,98698.45
2018-07-04T20:39:42.337Z,98716.75
2018-07-04T20:42:22.722Z,98715.84
2018-07-04T20:45:03.164Z,98717.53
2018-07-04T20:47:43.741Z,98721.34
2018-07-04T20:50:23.998Z,98725.19
2018-07-04T20:53:04.262Z,98727.46
2018-07-04T20:55:44.681Z,98730.16
2018-07-04T20:58:24.906Z,98641.27
2018-07-04T21:01:05.050Z,98731.64
2018-07-04T21:03:45.415Z,98735.59
2018-07-04T21:06:25.716Z,98731.88
2018-07-04T21:09:06.104Z,98730.45
2018-07-04T21:11:46.495Z,98737.29
2018-07-04T21:14:27.736Z,98737.32
2018-07-04T21:17:08.170Z,98738.68
2018-07-04T21:19:48.433Z,98741.08
2018-07-04T21:22:28.822Z,98737.15
2018-07-04T21:25:09.085Z,98734.06
2018-07-04T21:27:49.846Z,98730.75
2018-07-04T21:30:30.285Z,98728.08
2018-07-04T21:33:10.730Z,98724.63
2018-07-04T21:35:51.060Z,98724.36
2018-07-04T21:38:31.429Z,98722.36
2018-07-04T21:41:11.746Z,98722.20
2018-07-04T21:43:52.284Z,98725.22
2018-07-04T21:46:32.667Z,98734.02
2018-07-04T21:49:13.162Z,98732.69
2018-07-04T21:51:53.510Z,98725.40
2018-07-04T21:54:34.046Z,98719.94
2018-07-04T21:57:14.499Z,98721.52
2018-07-04T21:59:54.650Z,98721.97
2018-07-04T22:02:35.037Z,98728.33
2018-07-04T22:05:15.513Z,98733.95
2018-07-04T22:07:55.876Z,98724.77
2018-07-04T22:10:36.243Z,98710.31
2018-07-04T22:13:16.677Z,98706.52
2018-07-04T22:15:56.959Z,98701.81
2018-07-04T22:18:37.337Z,98702.50
2018-07-04T22:21:17.750Z,98700.94
2018-07-04T22:23:58.157Z,98700.38
2018-07-04T22:26:38.525Z,98696.02
2018-07-04T22:29:18.861Z,98696.14
2018-07-04T22:31:59.028Z,98691.75
2018-07-04T22:34:39.371Z,98694.30
2018-07-04T22:37:19.855Z,98697.78
2018-07-04T22:40:00.234Z,98695.76
2018-07-04T22:42:40.698Z,98691.49
2018-07-04T22:45:20.998Z,98692.18
2018-07-04T22:48:01.337Z,98694.62
2018-07-04T22:50:41.774Z,98688.11
2018-07-04T22:53:22.050Z,98690.02
2018-07-04T22:56:02.474Z,98689.02
2018-07-04T22:58:42.969Z,98689.25
2018-07-04T23:01:23.150Z,98684.44
2018-07-04T23:04:03.655Z,98687.67
2018-07-04T23:06:43.969Z,98688.36
2018-07-04T23:09:24.133Z,98693.93
2018-07-04T23:12:04.525Z,98689.91
2018-07-04T23:14:44.845Z,98683.09
2018-07-04T23:17:25.231Z,98685.73
2018-07-04T23:20:05.549Z,98678.67
2018-07-04T23:22:45.861Z,98679.56
2018-07-04T23:25:26.175Z,98682.34
2018-07-04T23:28:06.584Z,98686.27
2018-07-04T23:30:46.999Z,98688.22
2018-07-04T23:33:27.391Z,98685.51
2018-07-04T23:36:07.822Z,98686.97
2018-07-04T23:38:48.181Z,98693.01
2018-07-04T23:41:28.569Z,98693.55
2018-07-04T23:44:08.935Z,98690.67
2018-07-04T23:46:49.283Z,98688.09
2018-07-04T23:49:29.473Z,98686.28
2018-07-04T23:52:09.896Z,98686.02
2018-07-04T23:54:50.448Z,98682.75
2018-07-04T23:57:30.701Z,98687.27
